Solana Beach, California
Current Conditions -  °F | °C
As of 9:55 AM on Thursday 30 Oct 2014 (Local Time) from KNKX Reporting Station
Broken Clouds Broken Clouds  
Wind Chill: 23°   Ceiling: 20000
Heat Index: 23°   Visibility: 10mi
Dew Point:   Wind: 0mph
Humidity: 41%   Direction: NA
Pressure: 30"   Gusts: NA
Location:  32.98°N, 117.27°W
Report Text: KNKX 301655Z 00000KT 10SM FEW010 BKN200 23/09 A3000 RMK AO2 SLP155 T02280089 $
Loading
Personal Weather Stations






























Interactive Weather Map
Tropical Storm Tracking
New forecast layout! Learn more

10-Day Weather Forecast

Advertisements
Track Severe Weather on mobile